createdAt,value
2022-08-11T00:02:00.851Z,100233.41
2022-08-11T00:04:36.210Z,100244.66
2022-08-11T00:07:07.158Z,100244.22
2022-08-11T00:09:39.716Z,100249.84
2022-08-11T00:12:18.324Z,100238.50
2022-08-11T00:14:55.122Z,100244.50
2022-08-11T00:17:28.239Z,100246.88
2022-08-11T00:20:15.076Z,100252.03
2022-08-11T00:22:45.815Z,100256.78
2022-08-11T00:25:19.450Z,100252.25
2022-08-11T00:27:48.332Z,100260.44
2022-08-11T00:30:16.724Z,100253.81
2022-08-11T00:32:52.708Z,100250.16
2022-08-11T00:35:56.295Z,100250.53
2022-08-11T00:38:14.524Z,100254.53
2022-08-11T00:40:56.278Z,100252.97
2022-08-11T00:43:23.156Z,100259.34
2022-08-11T00:46:32.050Z,100252.09
2022-08-11T00:49:20.700Z,100256.97
2022-08-11T00:52:25.171Z,100258.59
2022-08-11T00:55:23.991Z,100256.16
2022-08-11T00:58:20.323Z,100264.22
2022-08-11T01:01:10.733Z,100269.03
2022-08-11T01:04:12.256Z,100266.59
2022-08-11T01:06:51.477Z,100274.22
2022-08-11T01:09:33.739Z,100275.41
2022-08-11T01:12:03.514Z,100278.94
2022-08-11T01:14:45.688Z,100283.03
2022-08-11T01:17:50.600Z,100285.41
2022-08-11T01:20:47.107Z,100278.50
2022-08-11T01:23:41.977Z,100285.66
2022-08-11T01:26:45.962Z,100289.19
2022-08-11T01:29:53.804Z,100293.19
2022-08-11T01:32:58.011Z,100289.47
2022-08-11T01:35:46.415Z,100288.19
2022-08-11T01:38:23.554Z,100289.84
2022-08-11T01:41:54.106Z,100289.00
2022-08-11T01:44:38.719Z,100290.56
2022-08-11T01:47:53.307Z,100294.09
2022-08-11T01:51:17.216Z,100290.72
2022-08-11T01:54:03.330Z,100292.38
2022-08-11T01:56:57.132Z,100301.63
2022-08-11T01:59:48.880Z,100301.97
2022-08-11T02:02:21.808Z,100317.34
2022-08-11T02:04:59.795Z,100307.69
2022-08-11T02:07:53.062Z,100303.63
2022-08-11T02:11:12.726Z,100304.06
2022-08-11T02:13:50.930Z,100308.53
2022-08-11T02:17:04.470Z,100305.16
2022-08-11T02:20:15.429Z,100309.25
2022-08-11T02:24:04.989Z,100305.97
2022-08-11T02:26:14.994Z,100313.03
2022-08-11T02:28:56.422Z,100314.78
2022-08-11T02:32:28.717Z,100315.59
2022-08-11T02:35:03.765Z,100317.22
2022-08-11T02:37:47.397Z,100319.69
2022-08-11T02:40:38.930Z,100324.03
2022-08-11T02:43:11.532Z,100325.31
2022-08-11T02:46:07.074Z,100316.97
2022-08-11T02:49:17.535Z,100322.59
2022-08-11T02:52:15.053Z,100318.72
2022-08-11T02:55:08.858Z,100319.25
2022-08-11T02:58:03.510Z,100325.78
2022-08-11T03:00:42.644Z,100328.16
2022-08-11T03:03:16.575Z,100338.69
2022-08-11T03:05:55.467Z,100337.25
2022-08-11T03:08:40.878Z,100338.16
2022-08-11T03:11:33.886Z,100337.88
2022-08-11T03:14:45.975Z,100340.41
2022-08-11T03:17:33.995Z,100342.97
2022-08-11T03:20:37.950Z,100339.91
2022-08-11T03:23:29.917Z,100338.34
2022-08-11T03:26:23.961Z,100339.63
2022-08-11T03:29:01.973Z,100345.78
2022-08-11T03:31:37.477Z,100345.28
2022-08-11T03:34:09.403Z,100346.34
2022-08-11T03:37:15.203Z,100340.34
2022-08-11T03:39:58.062Z,100347.16
2022-08-11T03:42:53.951Z,100339.81
2022-08-11T03:45:26.721Z,100348.56
2022-08-11T03:48:08.281Z,100351.75
2022-08-11T03:50:55.360Z,100352.91
2022-08-11T03:53:47.514Z,100354.28
2022-08-11T03:56:38.971Z,100345.63
2022-08-11T03:59:25.824Z,100347.03
2022-08-11T04:02:38.069Z,100353.59
2022-08-11T04:05:26.650Z,100348.44
2022-08-11T04:08:35.620Z,100348.59
2022-08-11T04:11:39.911Z,100346.22
2022-08-11T04:15:01.918Z,100338.59
2022-08-11T04:17:42.861Z,100348.50
2022-08-11T04:20:37.270Z,100341.44
2022-08-11T04:24:13.099Z,100344.34
2022-08-11T04:26:47.701Z,100344.34
2022-08-11T04:30:14.975Z,100342.84
2022-08-11T04:33:28.038Z,100344.09
2022-08-11T04:37:02.103Z,100351.06
2022-08-11T04:39:34.739Z,100348.53
2022-08-11T04:42:33.806Z,100342.59
2022-08-11T04:45:20.451Z,100346.75
2022-08-11T04:48:13.881Z,100353.28
2022-08-11T04:51:34.679Z,100356.47
2022-08-11T04:54:45.343Z,100355.22
2022-08-11T04:57:58.611Z,100362.31
2022-08-11T05:00:55.408Z,100356.03
2022-08-11T05:03:54.543Z,100360.06
2022-08-11T05:06:50.178Z,100357.09
2022-08-11T05:09:54.288Z,100356.44
2022-08-11T05:12:35.102Z,100361.47
2022-08-11T05:15:24.569Z,100361.66
2022-08-11T05:18:35.249Z,100358.56
2022-08-11T05:21:27.597Z,100354.66
2022-08-11T05:24:21.637Z,100354.81
2022-08-11T05:27:13.636Z,100364.69
2022-08-11T05:30:06.396Z,100357.22
2022-08-11T05:33:02.006Z,100359.38
2022-08-11T05:36:00.289Z,100366.06
2022-08-11T05:38:52.248Z,100354.78
2022-08-11T05:41:48.051Z,100367.28
2022-08-11T05:44:38.721Z,100366.94
2022-08-11T05:47:25.899Z,100362.47
2022-08-11T05:50:13.723Z,100356.16
2022-08-11T05:53:04.836Z,100359.00
2022-08-11T05:56:02.934Z,100352.22
2022-08-11T05:58:42.540Z,100355.84
2022-08-11T06:01:12.405Z,100356.47
2022-08-11T06:04:00.712Z,100355.16
2022-08-11T06:06:29.525Z,100357.47
2022-08-11T06:08:58.739Z,100353.44
2022-08-11T06:11:44.091Z,100354.66
2022-08-11T06:14:13.330Z,100345.72
2022-08-11T06:16:42.936Z,100356.59
2022-08-11T06:19:10.562Z,100358.13
2022-08-11T06:21:38.353Z,100359.56
2022-08-11T06:24:12.875Z,100348.53
2022-08-11T06:27:08.722Z,100353.06
2022-08-11T06:29:37.999Z,100352.34
2022-08-11T06:32:16.088Z,100353.81
2022-08-11T06:35:10.180Z,100361.72
2022-08-11T06:37:59.070Z,100360.25
2022-08-11T06:40:27.576Z,100356.53
2022-08-11T06:43:05.012Z,100348.69
2022-08-11T06:45:55.655Z,100356.09
2022-08-11T06:48:24.498Z,100356.34
2022-08-11T06:51:13.843Z,100354.19
2022-08-11T06:53:56.389Z,100352.53
2022-08-11T06:57:28.863Z,100356.03
2022-08-11T07:00:07.366Z,100350.50
2022-08-11T07:02:42.280Z,100365.50
2022-08-11T07:05:23.893Z,100362.09
2022-08-11T07:08:36.081Z,100359.88
2022-08-11T07:11:41.587Z,100351.44
2022-08-11T07:14:30.627Z,100356.28
2022-08-11T07:17:00.900Z,100359.53
2022-08-11T07:19:49.218Z,100357.78
2022-08-11T07:22:37.229Z,100348.38
2022-08-11T07:25:43.434Z,100350.09
2022-08-11T07:28:43.505Z,100344.63
2022-08-11T07:31:14.628Z,100346.50
2022-08-11T07:34:08.199Z,100346.53
2022-08-11T07:36:32.539Z,100343.47
2022-08-11T07:39:00.453Z,100342.38
2022-08-11T07:41:31.290Z,100350.13
2022-08-11T07:44:09.991Z,100352.03
2022-08-11T07:47:01.117Z,100354.06
2022-08-11T07:49:52.042Z,100344.94
2022-08-11T07:52:33.853Z,100347.03
2022-08-11T07:55:21.371Z,100347.13
2022-08-11T07:58:30.066Z,100359.50
2022-08-11T08:01:21.753Z,100345.53
2022-08-11T08:04:09.830Z,100344.06
2022-08-11T08:06:56.444Z,100349.94
2022-08-11T08:09:43.847Z,100350.91
2022-08-11T08:12:30.361Z,100347.56
2022-08-11T08:15:18.038Z,100347.31
2022-08-11T08:18:08.285Z,100347.28
2022-08-11T08:20:40.479Z,100344.28
2022-08-11T08:23:10.260Z,100345.22
2022-08-11T08:25:40.007Z,100338.56
2022-08-11T08:28:10.677Z,100351.31
2022-08-11T08:30:47.590Z,100337.25
2022-08-11T08:33:42.519Z,100335.69
2022-08-11T08:36:14.810Z,100331.00
2022-08-11T08:38:47.491Z,100322.66
2022-08-11T08:41:20.417Z,100330.97
2022-08-11T08:43:52.390Z,100322.44
2022-08-11T08:46:28.300Z,100327.25
2022-08-11T08:48:56.636Z,100336.22
2022-08-11T08:52:01.976Z,100342.75
2022-08-11T08:54:38.107Z,100340.00
2022-08-11T08:57:09.330Z,100341.31
2022-08-11T08:59:48.405Z,100341.78
2022-08-11T09:02:20.076Z,100334.78
2022-08-11T09:05:04.060Z,100323.13
2022-08-11T09:07:36.073Z,100318.56
2022-08-11T09:10:11.190Z,100323.75
2022-08-11T09:12:41.138Z,100324.06
2022-08-11T09:15:11.929Z,100317.44
2022-08-11T09:17:50.679Z,100320.06
2022-08-11T09:20:22.319Z,100317.59
2022-08-11T09:24:07.427Z,100315.72
2022-08-11T09:26:19.319Z,100314.56
2022-08-11T09:28:47.746Z,100305.34
2022-08-11T09:31:22.137Z,100300.63
2022-08-11T09:33:54.172Z,100290.44
2022-08-11T09:36:40.134Z,100298.34
2022-08-11T09:39:31.243Z,100301.78
2022-08-11T09:42:03.352Z,100288.94
2022-08-11T09:44:49.466Z,100294.75
2022-08-11T09:47:21.620Z,100295.00
2022-08-11T09:49:51.820Z,100292.91
2022-08-11T09:52:19.816Z,100296.56
2022-08-11T09:54:50.042Z,100290.66
2022-08-11T09:57:40.687Z,100288.66
2022-08-11T10:00:13.520Z,100285.47
2022-08-11T10:02:47.646Z,100285.53
2022-08-11T10:05:40.461Z,100286.38
2022-08-11T10:08:14.444Z,100282.31
2022-08-11T10:10:41.851Z,100287.75
2022-08-11T10:14:30.692Z,100282.06
2022-08-11T10:16:17.643Z,100287.66
2022-08-11T10:18:53.285Z,100280.59
2022-08-11T10:21:29.202Z,100276.44
2022-08-11T10:24:18.144Z,100274.56
2022-08-11T10:27:00.043Z,100266.78
2022-08-11T10:29:56.907Z,100274.47
2022-08-11T10:32:57.997Z,100278.84
2022-08-11T10:35:28.832Z,100271.63
2022-08-11T10:38:08.305Z,100274.72
2022-08-11T10:40:40.033Z,100277.38
2022-08-11T10:43:14.209Z,100275.75
2022-08-11T10:46:05.519Z,100279.78
2022-08-11T10:48:38.298Z,100269.56
2022-08-11T10:51:48.019Z,100269.16
2022-08-11T10:54:21.461Z,100259.47
2022-08-11T10:57:07.019Z,100257.22
2022-08-11T10:59:34.654Z,100258.91
2022-08-11T11:02:02.157Z,100257.59
2022-08-11T11:04:55.229Z,100249.47
2022-08-11T11:07:25.065Z,100247.59
2022-08-11T11:09:58.608Z,100249.38
2022-08-11T11:12:47.786Z,100239.13
2022-08-11T11:15:37.075Z,100243.59
2022-08-11T11:18:09.642Z,100243.47
2022-08-11T11:20:47.720Z,100251.72
2022-08-11T11:23:25.841Z,100236.97
2022-08-11T11:26:11.079Z,100229.50
2022-08-11T11:28:56.664Z,100236.16
2022-08-11T11:31:48.724Z,100228.00
2022-08-11T11:34:28.062Z,100231.72
2022-08-11T11:37:00.344Z,100231.28
2022-08-11T11:39:35.303Z,100233.72
2022-08-11T11:42:08.108Z,100236.91
2022-08-11T11:44:37.969Z,100244.94
2022-08-11T11:47:06.166Z,100228.75
2022-08-11T11:49:47.399Z,100230.00
2022-08-11T11:52:18.441Z,100234.84
2022-08-11T11:54:55.513Z,100232.88
2022-08-11T11:57:58.410Z,100231.72
2022-08-11T12:00:44.785Z,100230.59
2022-08-11T12:03:12.652Z,100223.03
2022-08-11T12:05:43.937Z,100221.50
2022-08-11T12:08:16.512Z,100224.09
2022-08-11T12:10:49.375Z,100211.53
2022-08-11T12:13:36.954Z,100215.94
2022-08-11T12:16:32.907Z,100218.47
2022-08-11T12:18:55.283Z,100224.94
2022-08-11T12:21:24.422Z,100221.66
2022-08-11T12:24:11.251Z,100215.66
2022-08-11T12:27:16.656Z,100213.25
2022-08-11T12:29:51.366Z,100214.88
2022-08-11T12:32:24.502Z,100203.88
2022-08-11T12:34:51.919Z,100210.38
2022-08-11T12:37:23.828Z,100211.91
2022-08-11T12:40:43.660Z,100212.69
2022-08-11T12:43:24.425Z,100211.53
2022-08-11T12:46:08.637Z,100208.03
2022-08-11T12:49:02.393Z,100206.88
2022-08-11T12:52:01.542Z,100199.09
2022-08-11T12:55:06.565Z,100206.38
2022-08-11T12:58:03.729Z,100206.34
2022-08-11T13:00:50.496Z,100216.16
2022-08-11T13:03:39.039Z,100207.97
2022-08-11T13:06:07.603Z,100205.16
2022-08-11T13:08:37.201Z,100208.44
2022-08-11T13:11:23.327Z,100207.75
2022-08-11T13:13:57.123Z,100193.91
2022-08-11T13:16:30.979Z,100197.97
2022-08-11T13:19:01.514Z,100199.16
2022-08-11T13:21:30.400Z,100198.69
2022-08-11T13:24:01.568Z,100208.06
2022-08-11T13:26:48.054Z,100199.16
2022-08-11T13:29:28.405Z,100186.09
2022-08-11T13:32:14.785Z,100189.81
2022-08-11T13:34:43.315Z,100192.69
2022-08-11T13:37:13.235Z,100191.88
2022-08-11T13:39:47.422Z,100189.47
2022-08-11T13:42:18.371Z,100189.91
2022-08-11T13:44:48.195Z,100188.28
2022-08-11T13:47:16.296Z,100185.41
2022-08-11T13:49:45.144Z,100181.38
2022-08-11T13:52:17.709Z,100187.31
2022-08-11T13:54:48.468Z,100179.63
2022-08-11T13:58:08.177Z,100174.38
2022-08-11T14:00:23.781Z,100184.19
2022-08-11T14:02:56.378Z,100174.47
2022-08-11T14:05:32.106Z,100176.97
2022-08-11T14:08:06.334Z,100171.63
2022-08-11T14:10:37.818Z,100183.44
2022-08-11T14:13:42.318Z,100181.84
2022-08-11T14:16:29.686Z,100168.84
2022-08-11T14:19:02.758Z,100172.13
2022-08-11T14:21:54.249Z,100170.47
2022-08-11T14:24:23.046Z,100166.09
2022-08-11T14:26:51.980Z,100156.75
2022-08-11T14:29:21.645Z,100165.00
2022-08-11T14:32:09.208Z,100156.91
2022-08-11T14:34:39.852Z,100156.13
2022-08-11T14:37:27.583Z,100147.25
2022-08-11T14:40:03.000Z,100149.34
2022-08-11T14:42:49.616Z,100146.09
2022-08-11T14:45:54.421Z,100152.19
2022-08-11T14:48:24.091Z,100152.59
2022-08-11T14:50:51.738Z,100151.38
2022-08-11T14:53:27.765Z,100149.75
2022-08-11T14:56:13.667Z,100148.16
2022-08-11T14:58:43.076Z,100148.16
2022-08-11T15:01:30.844Z,100147.75
2022-08-11T15:04:25.066Z,100141.28
2022-08-11T15:06:47.419Z,100140.09
2022-08-11T15:09:16.575Z,100142.97
2022-08-11T15:12:02.807Z,100145.84
2022-08-11T15:14:55.890Z,100147.09
2022-08-11T15:17:23.560Z,100146.75
2022-08-11T15:20:16.123Z,100138.66
2022-08-11T15:23:01.777Z,100141.56
2022-08-11T15:25:30.461Z,100138.28
2022-08-11T15:28:18.258Z,100153.38
2022-08-11T15:31:06.365Z,100136.69
2022-08-11T15:33:57.751Z,100134.63
2022-08-11T15:36:45.255Z,100146.09
2022-08-11T15:40:05.924Z,100142.06
2022-08-11T15:42:59.279Z,100137.25
2022-08-11T15:45:45.881Z,100147.44
2022-08-11T15:48:16.810Z,100141.38
2022-08-11T15:50:52.435Z,100142.63
2022-08-11T15:53:41.561Z,100149.56
2022-08-11T15:56:11.305Z,100152.44
2022-08-11T15:59:40.796Z,100151.22
2022-08-11T16:02:13.116Z,100148.06
2022-08-11T16:04:46.237Z,100152.16
2022-08-11T16:07:27.555Z,100148.47
2022-08-11T16:10:09.516Z,100148.06
2022-08-11T16:13:08.203Z,100149.72
2022-08-11T16:15:58.616Z,100139.53
2022-08-11T16:18:40.854Z,100150.53
2022-08-11T16:21:11.158Z,100141.59
2022-08-11T16:24:00.996Z,100155.81
2022-08-11T16:27:08.629Z,100142.03
2022-08-11T16:29:17.450Z,100135.56
2022-08-11T16:32:06.187Z,100140.03
2022-08-11T16:34:53.596Z,100141.66
2022-08-11T16:37:42.226Z,100134.75
2022-08-11T16:40:09.908Z,100138.47
2022-08-11T16:43:05.440Z,100145.81
2022-08-11T16:45:58.753Z,100141.34
2022-08-11T16:48:35.943Z,100146.66
2022-08-11T16:51:11.177Z,100143.00
2022-08-11T16:53:59.683Z,100149.94
2022-08-11T16:56:49.521Z,100144.22
2022-08-11T16:59:36.320Z,100142.22
2022-08-11T17:02:12.817Z,100138.53
2022-08-11T17:05:20.771Z,100150.75
2022-08-11T17:08:07.442Z,100143.03
2022-08-11T17:11:01.533Z,100150.75
2022-08-11T17:14:10.274Z,100154.78
2022-08-11T17:16:40.638Z,100156.00
2022-08-11T17:19:16.514Z,100155.63
2022-08-11T17:22:05.467Z,100165.34
2022-08-11T17:24:37.166Z,100153.97
2022-08-11T17:27:07.661Z,100157.59
2022-08-11T17:29:54.158Z,100155.19
2022-08-11T17:33:00.797Z,100157.19
2022-08-11T17:35:39.486Z,100154.78
2022-08-11T17:38:22.098Z,100154.75
2022-08-11T17:41:23.445Z,100159.16
2022-08-11T17:44:12.373Z,100160.38
2022-08-11T17:47:05.180Z,100163.59
2022-08-11T17:49:38.106Z,100169.22
2022-08-11T17:52:36.396Z,100170.44
2022-08-11T17:55:51.160Z,100173.28
2022-08-11T17:58:28.734Z,100177.72
2022-08-11T18:01:02.086Z,100174.06
2022-08-11T18:03:40.112Z,100172.44
2022-08-11T18:06:13.366Z,100181.34
2022-08-11T18:09:05.165Z,100175.22
2022-08-11T18:12:07.021Z,100181.31
2022-08-11T18:15:00.849Z,100188.16
2022-08-11T18:17:46.398Z,100179.59
2022-08-11T18:20:32.005Z,100186.91
2022-08-11T18:23:21.738Z,100187.63
2022-08-11T18:26:30.505Z,100195.69
2022-08-11T18:29:18.126Z,100192.44
2022-08-11T18:32:08.318Z,100195.69
2022-08-11T18:34:58.866Z,100192.03
2022-08-11T18:37:53.566Z,100196.88
2022-08-11T18:40:44.914Z,100202.09
2022-08-11T18:43:33.080Z,100205.72
2022-08-11T18:46:28.003Z,100208.13
2022-08-11T18:49:20.002Z,100208.13
2022-08-11T18:52:11.001Z,100208.53
2022-08-11T18:55:00.429Z,100211.75
2022-08-11T18:57:49.817Z,100202.81
2022-08-11T19:00:41.309Z,100215.81
2022-08-11T19:03:28.923Z,100212.53
2022-08-11T19:06:38.503Z,100224.31
2022-08-11T19:09:27.530Z,100218.22
2022-08-11T19:12:15.709Z,100210.88
2022-08-11T19:15:03.219Z,100214.88
2022-08-11T19:17:51.351Z,100211.19
2022-08-11T19:20:42.328Z,100213.16
2022-08-11T19:23:29.972Z,100218.41
2022-08-11T19:26:17.745Z,100227.28
2022-08-11T19:29:05.861Z,100223.63
2022-08-11T19:31:51.992Z,100231.72
2022-08-11T19:34:40.771Z,100220.78
2022-08-11T19:37:29.527Z,100223.16
2022-08-11T19:40:23.092Z,100226.81
2022-08-11T19:43:18.680Z,100229.13
2022-08-11T19:46:17.268Z,100231.50
2022-08-11T19:49:05.394Z,100229.03
2022-08-11T19:51:54.174Z,100227.38
2022-08-11T19:54:44.455Z,100236.19
2022-08-11T19:57:34.528Z,100236.13
2022-08-11T20:00:33.381Z,100246.56
2022-08-11T20:03:19.976Z,100240.13
2022-08-11T20:06:08.588Z,100234.47
2022-08-11T20:08:59.099Z,100246.16
2022-08-11T20:11:49.770Z,100242.47
2022-08-11T20:14:38.924Z,100246.06
2022-08-11T20:17:27.117Z,100246.44
2022-08-11T20:20:13.624Z,100254.06
2022-08-11T20:23:02.331Z,100252.09
2022-08-11T20:25:48.372Z,100257.31
2022-08-11T20:28:38.065Z,100257.75
2022-08-11T20:31:24.689Z,100246.25
2022-08-11T20:34:10.162Z,100254.41
2022-08-11T20:36:57.251Z,100248.75
2022-08-11T20:39:44.340Z,100253.13
2022-08-11T20:42:31.349Z,100249.34
2022-08-11T20:45:23.544Z,100249.25
2022-08-11T20:48:14.636Z,100245.88
2022-08-11T20:51:20.040Z,100243.75
2022-08-11T20:54:10.559Z,100245.00
2022-08-11T20:56:57.862Z,100253.53
2022-08-11T20:59:49.428Z,100247.94
2022-08-11T21:02:45.126Z,100250.63
2022-08-11T21:06:09.412Z,100250.13
2022-08-11T21:08:49.699Z,100256.13
2022-08-11T21:11:37.339Z,100258.59
2022-08-11T21:14:25.875Z,100255.38
2022-08-11T21:17:27.755Z,100256.13
2022-08-11T21:20:21.153Z,100256.91
2022-08-11T21:23:13.118Z,100272.28
2022-08-11T21:26:13.865Z,100266.91
2022-08-11T21:29:01.019Z,100262.34
2022-08-11T21:31:49.378Z,100264.28
2022-08-11T21:34:38.995Z,100271.13
2022-08-11T21:37:27.116Z,100262.56
2022-08-11T21:40:17.114Z,100263.75
2022-08-11T21:43:05.153Z,100270.28
2022-08-11T21:45:54.548Z,100276.78
2022-08-11T21:48:41.660Z,100280.44
2022-08-11T21:51:27.275Z,100276.72
2022-08-11T21:54:13.951Z,100282.34
2022-08-11T21:57:00.419Z,100283.09
2022-08-11T22:00:26.909Z,100282.97
2022-08-11T22:03:12.902Z,100281.16
2022-08-11T22:06:00.780Z,100273.06
2022-08-11T22:08:47.375Z,100273.06
2022-08-11T22:11:34.427Z,100299.69
2022-08-11T22:14:20.688Z,100285.94
2022-08-11T22:17:06.267Z,100282.72
2022-08-11T22:19:54.934Z,100283.63
2022-08-11T22:22:51.133Z,100282.41
2022-08-11T22:25:50.713Z,100288.06
2022-08-11T22:28:39.731Z,100286.44
2022-08-11T22:31:26.776Z,100280.81
2022-08-11T22:34:12.470Z,100289.72
2022-08-11T22:37:02.244Z,100288.53
2022-08-11T22:39:59.868Z,100299.53
2022-08-11T22:42:52.467Z,100290.69
2022-08-11T22:45:39.292Z,100300.38
2022-08-11T22:48:26.534Z,100305.94
2022-08-11T22:51:13.879Z,100297.06
2022-08-11T22:54:00.461Z,100304.25
2022-08-11T22:56:49.115Z,100300.09
2022-08-11T22:59:37.363Z,100306.50
2022-08-11T23:02:24.400Z,100312.91
2022-08-11T23:05:10.590Z,100304.81
2022-08-11T23:07:57.304Z,100308.47
2022-08-11T23:10:45.343Z,100314.50
2022-08-11T23:13:32.063Z,100301.13
2022-08-11T23:16:18.955Z,100309.59
2022-08-11T23:19:05.185Z,100309.13
2022-08-11T23:21:51.309Z,100311.09
2022-08-11T23:24:38.169Z,100307.81
2022-08-11T23:27:27.286Z,100324.34
2022-08-11T23:30:17.246Z,100323.06
2022-08-11T23:33:06.690Z,100313.72
2022-08-11T23:35:59.502Z,100322.56
2022-08-11T23:38:46.933Z,100330.94
2022-08-11T23:41:33.471Z,100325.25
2022-08-11T23:44:24.264Z,100330.91
2022-08-11T23:47:14.107Z,100323.19
2022-08-11T23:50:00.053Z,100325.72
2022-08-11T23:52:47.649Z,100322.97
2022-08-11T23:55:33.217Z,100325.41
2022-08-11T23:58:18.477Z,100330.59
